LOWI Airport Information

Runway Information
Runway 08 Length 6562 ft width 148 ft
Elevation 1906 ft Threshold 339 ft Heading 81
Runway 26 Length 6562 ft Width 148 ft
Elevation 1893 ft Threshold 198 ft Heading 261
Airport Frequencies
Type APP Name APP Frequency 119.275 MHZ
Type ATIS Name ATIS Frequency 126.025 MHZ
Type GND Crew Name Frequency 121.8 MHZ
Type GND Crew Name Frequency 121.9 MHZ
Type TWR Name TWR Frequency 120.1 MHZ
Airport Navaids
Type NDB Name Innsbruck Frequency 420 KHZ
Type NDB Name Kuhtai Frequency 413 KHZ
Airport Weather Information & NOTAM
ADDS - METARS form results

(2035 UTC 26 March 2019)
Data provider http://aviationweather.gov/metar/data/
 
METAR text: LOWI 262020Z VRB02KT 9999 FEW050 BKN065 04/M03 Q1028 NOSIG
Conditions at: LOWI (INNSBRUCK AIRPOR, AT) observed 2020 UTC 26 March 2019
Temperature: 4.0°C (39°F)
Dewpoint: -3.0°C (27°F) [RH = 60%]
Pressure (altimeter): 30.35 inches Hg (1028.0 mb)
Winds: variable direction winds at 2 MPH (2 knots; 1.0 m/s)
Visibility: 6 or more miles (10+ km)
Ceiling: 6500 feet AGL
Clouds: few clouds at 5000 feet AGL
broken clouds at 6500 feet AGL
Weather: no significant weather observed at this time

METAR text: LOWI 261950Z VRB01KT 9999 FEW050 BKN065 04/M03 Q1028 NOSIG
Conditions at: LOWI (INNSBRUCK AIRPOR, AT) observed 1950 UTC 26 March 2019
Temperature: 4.0°C (39°F)
Dewpoint: -3.0°C (27°F) [RH = 60%]
Pressure (altimeter): 30.35 inches Hg (1028.0 mb)
Winds: variable direction winds at 1 MPH (1 knots; 0.5 m/s)
Visibility: 6 or more miles (10+ km)
Ceiling: 6500 feet AGL
Clouds: few clouds at 5000 feet AGL
broken clouds at 6500 feet AGL
Weather: no significant weather observed at this time

Forecast for: LOWI (INNSBRUCK AIRPOR, AT)
Text: TAF LOWI 261715Z 2618/2718 05005KT 9999 FEW050 TX08/2714Z TN02/2706Z
Forecast period: 1800 to 2200 UTC 26 March 2019
Forecast type: FROM: standard forecast or significant change
Winds: from the NE (50 degrees) at 6 MPH (5 knots; 2.6 m/s)
Visibility: 6 or more miles 10+ km)
Ceiling: at least 12,000 feet AGL
Clouds: few clouds at 5000 feet AGL
Weather: no significant weather forecast for this period
Text: BECMG 2622/2624 SCT050 BKN070
Forecast period: 2200 UTC 26 March 2019 to 1800 UTC 27 March 2019
Forecast type: BECOMING: Conditions expected to become as follows by 0000 UTC 27 March 2019
Winds: from the NE (50 degrees) at 6 MPH (5 knots; 2.6 m/s)
Visibility: 6 or more miles 10+ km)
Ceiling: 7000 feet AGL
Clouds: scattered clouds at 5000 feet AGL
broken clouds at 7000 feet AGL
Weather: no significant weather forecast for this period
Text: TEMPO 2700/2707 4000 -SN BKN015
Forecast period: 0000 to 0700 UTC 27 March 2019
Forecast type: TEMPORARY: The following changes expected for less than half the time period
Visibility: 2.49 miles (4.01 km)
Ceiling: 1500 feet AGL
Clouds: broken clouds at 1500 feet AGL
Weather: -SN  (light snow)